Time;durP1;ratioP1;P1;durP2;ratioP2;P2;SDS_P1;SDS_P2;PMS_P1;PMS_P2;Temp;Humidity;BMP_temperature;BMP_pressure;BME280_temperature;BME280_humidity;BME280_pressure;Samples;Min_cycle;Max_cycle;Signal;HPM_P1;HPM_P2
2023/12/31 00:00:29;;;;;;;30.55;27.85;;;14.70;99.90;;;;;;5042802;28;20168;-64
2023/12/31 00:02:54;;;;;;;31.10;28.25;;;14.50;99.90;;;;;;5043589;28;20069;-63
2023/12/31 00:05:20;;;;;;;30.88;27.98;;;15.50;99.90;;;;;;5045245;28;20049;-64
2023/12/31 00:07:45;;;;;;;32.17;29.40;;;14.50;99.90;;;;;;5008140;28;20352;-63
2023/12/31 00:10:11;;;;;;;31.75;28.75;;;16.50;99.90;;;;;;5024753;28;20076;-65
2023/12/31 00:12:37;;;;;;;29.33;26.70;;;14.50;99.90;;;;;;5026881;28;20060;-63
2023/12/31 00:15:04;;;;;;;30.52;27.63;;;15.60;99.90;;;;;;5024218;28;20050;-63
2023/12/31 00:17:30;;;;;;;29.45;26.83;;;15.20;99.90;;;;;;5027746;28;20091;-64
2023/12/31 00:19:56;;;;;;;30.60;27.98;;;16.10;99.90;;;;;;5044015;28;20049;-64
2023/12/31 00:22:21;;;;;;;29.42;26.73;;;14.60;99.90;;;;;;5031153;28;20041;-64
2023/12/31 00:24:51;;;;;;;28.10;25.70;;;16.60;99.90;;;;;;5025644;28;20049;-63
2023/12/31 00:27:16;;;;;;;31.42;28.48;;;16.00;99.90;;;;;;5025732;28;20140;-64
2023/12/31 00:29:44;;;;;;;30.60;27.95;;;15.40;99.90;;;;;;5031445;28;20598;-63
2023/12/31 00:32:09;;;;;;;32.05;29.30;;;16.40;99.90;;;;;;5031574;28;20049;-64
2023/12/31 00:34:35;;;;;;;33.25;30.05;;;16.30;99.90;;;;;;5033569;28;20067;-63
2023/12/31 00:37:02;;;;;;;31.30;28.23;;;15.10;99.90;;;;;;5027568;28;20052;-64
2023/12/31 00:39:27;;;;;;;31.80;28.90;;;14.30;99.90;;;;;;5047156;28;20052;-64
2023/12/31 00:41:53;;;;;;;30.55;27.67;;;15.30;99.90;;;;;;5035542;28;20049;-63
2023/12/31 00:44:18;;;;;;;29.55;26.75;;;16.50;99.90;;;;;;5047332;28;20487;-64
2023/12/31 00:46:44;;;;;;;32.42;29.42;;;14.60;99.90;;;;;;5048940;28;20251;-62
2023/12/31 00:49:10;;;;;;;33.17;30.35;;;16.20;99.90;;;;;;5047786;28;20095;-64
2023/12/31 00:51:35;;;;;;;32.17;29.27;;;14.10;99.90;;;;;;5040623;28;20041;-63
2023/12/31 00:54:01;;;;;;;34.13;30.98;;;15.80;99.90;;;;;;5038812;28;20057;-64
2023/12/31 00:56:26;;;;;;;31.33;28.52;;;16.10;99.90;;;;;;5029121;28;20037;-63
2023/12/31 00:58:52;;;;;;;31.73;28.65;;;16.10;99.90;;;;;;5029042;28;20051;-63
2023/12/31 01:01:17;;;;;;;30.25;27.55;;;14.30;99.90;;;;;;5029788;28;20059;-63
2023/12/31 01:03:43;;;;;;;32.17;29.27;;;14.20;99.90;;;;;;5027311;28;20069;-63
2023/12/31 01:06:08;;;;;;;35.70;32.40;;;14.60;99.90;;;;;;5041384;28;20494;-64
2023/12/31 01:08:34;;;;;;;34.42;31.55;;;14.20;99.90;;;;;;5047686;28;20533;-63
2023/12/31 01:11:00;;;;;;;32.70;29.73;;;14.60;99.90;;;;;;5045475;28;20404;-64
2023/12/31 01:13:27;;;;;;;33.83;30.88;;;15.70;99.90;;;;;;5044225;28;20049;-63
2023/12/31 01:15:53;;;;;;;34.10;31.20;;;14.30;99.90;;;;;;5047081;28;20059;-63
2023/12/31 01:18:19;;;;;;;37.53;34.22;;;15.70;99.90;;;;;;5046457;28;20036;-64
2023/12/31 01:20:45;;;;;;;37.75;34.50;;;14.20;99.90;;;;;;5048316;28;20045;-63
2023/12/31 01:23:11;;;;;;;36.50;33.25;;;15.70;99.90;;;;;;5046037;28;20045;-63
2023/12/31 01:25:36;;;;;;;36.55;33.33;;;15.90;99.90;;;;;;5048201;28;20041;-63
2023/12/31 01:28:02;;;;;;;35.88;32.47;;;16.20;99.90;;;;;;5046338;28;20410;-64
2023/12/31 01:30:28;;;;;;;31.23;28.52;;;14.10;99.90;;;;;;5037961;28;20036;-61
2023/12/31 01:32:54;;;;;;;32.55;29.60;;;14.60;99.90;;;;;;5035980;28;20045;-64
2023/12/31 01:35:19;;;;;;;35.65;32.25;;;16.00;99.90;;;;;;5028345;28;20479;-63
2023/12/31 01:37:48;;;;;;;33.58;30.42;;;14.90;99.90;;;;;;5032134;28;20099;-64
2023/12/31 01:40:13;;;;;;;36.10;32.67;;;15.90;99.90;;;;;;5046478;28;20183;-63
2023/12/31 01:42:39;;;;;;;38.72;35.35;;;14.60;99.90;;;;;;5043388;28;20124;-64
2023/12/31 01:45:05;;;;;;;33.42;30.63;;;14.50;99.90;;;;;;5046037;28;20053;-63
2023/12/31 01:47:33;;;;;;;32.63;29.98;;;15.00;99.90;;;;;;5027423;28;20431;-64
2023/12/31 01:50:00;;;;;;;35.92;32.92;;;15.80;99.90;;;;;;5025893;28;20091;-64
2023/12/31 01:52:26;;;;;;;34.03;31.13;;;14.40;99.90;;;;;;5028832;28;20053;-63
2023/12/31 01:54:53;;;;;;;34.55;31.33;;;16.50;99.90;;;;;;5032953;28;20433;-66
2023/12/31 01:57:23;;;;;;;34.33;31.63;;;15.80;99.90;;;;;;5044643;28;20040;-63
2023/12/31 01:59:50;;;;;;;32.00;29.38;;;16.50;99.90;;;;;;5045294;28;20053;-63
2023/12/31 02:02:16;;;;;;;34.10;31.10;;;15.80;99.90;;;;;;5026811;28;20172;-63
2023/12/31 02:04:42;;;;;;;31.35;28.65;;;16.40;99.90;;;;;;5035844;28;20151;-63
2023/12/31 02:07:07;;;;;;;31.95;29.15;;;15.20;99.90;;;;;;5041421;28;20102;-63
2023/12/31 02:09:33;;;;;;;31.25;28.33;;;15.90;99.90;;;;;;5042741;28;20037;-64
2023/12/31 02:11:59;;;;;;;32.45;29.65;;;16.30;99.90;;;;;;5045428;28;20049;-64
2023/12/31 02:14:25;;;;;;;31.75;28.95;;;16.10;99.90;;;;;;5044826;28;20055;-63
2023/12/31 02:16:50;;;;;;;33.40;30.50;;;14.60;99.90;;;;;;5039536;28;20033;-64
2023/12/31 02:19:16;;;;;;;31.15;28.52;;;16.00;99.90;;;;;;5036889;28;20163;-63
2023/12/31 02:21:42;;;;;;;31.15;28.52;;;14.80;99.90;;;;;;5044603;28;20033;-64
2023/12/31 02:24:11;;;;;;;32.72;29.73;;;15.20;99.90;;;;;;5037441;28;20052;-63
2023/12/31 02:26:37;;;;;;;30.20;27.60;;;14.60;99.90;;;;;;5042230;28;20037;-64
2023/12/31 02:29:03;;;;;;;32.30;29.45;;;14.60;99.90;;;;;;5045951;28;20048;-63
2023/12/31 02:31:29;;;;;;;32.40;29.50;;;14.40;99.90;;;;;;5042927;28;20091;-63
2023/12/31 02:33:54;;;;;;;33.53;30.33;;;14.40;99.90;;;;;;5042345;28;20072;-62
2023/12/31 02:36:20;;;;;;;35.05;32.13;;;14.40;99.90;;;;;;5039207;28;20095;-62
2023/12/31 02:38:46;;;;;;;36.33;33.15;;;14.90;99.90;;;;;;5040576;28;20090;-63
2023/12/31 02:41:11;;;;;;;35.10;32.20;;;14.30;99.90;;;;;;5043413;28;20045;-63
2023/12/31 02:43:37;;;;;;;36.67;33.55;;;15.50;99.90;;;;;;5042977;28;20609;-64
2023/12/31 02:46:03;;;;;;;36.80;33.80;;;14.90;99.90;;;;;;5034679;28;20388;-64
2023/12/31 02:48:29;;;;;;;36.28;33.17;;;14.70;99.90;;;;;;5044539;28;20392;-63
2023/12/31 02:50:54;;;;;;;32.30;29.50;;;15.90;99.90;;;;;;5040921;28;20049;-63
2023/12/31 02:53:20;;;;;;;32.10;29.30;;;15.80;99.90;;;;;;5040696;28;20056;-63
2023/12/31 02:55:45;;;;;;;32.17;29.27;;;14.80;99.90;;;;;;5042025;28;20052;-65
2023/12/31 02:58:11;;;;;;;36.53;33.53;;;14.50;99.90;;;;;;5044749;28;20045;-62
2023/12/31 03:00:37;;;;;;;37.13;33.97;;;14.60;99.90;;;;;;5024620;28;20064;-65
2023/12/31 03:03:02;;;;;;;36.63;33.67;;;14.70;99.90;;;;;;5039912;28;20136;-64
2023/12/31 03:05:28;;;;;;;32.72;29.92;;;15.00;99.90;;;;;;5045031;28;20421;-64
2023/12/31 03:07:54;;;;;;;35.75;32.35;;;15.80;99.90;;;;;;5046061;28;20048;-63
2023/12/31 03:10:19;;;;;;;31.23;28.30;;;15.60;99.90;;;;;;5044640;28;20045;-64
2023/12/31 03:12:45;;;;;;;31.45;28.85;;;14.90;99.90;;;;;;5033072;28;20495;-62
2023/12/31 03:15:11;;;;;;;33.35;30.38;;;15.60;99.90;;;;;;5026537;28;20411;-64
2023/12/31 03:17:36;;;;;;;32.53;29.63;;;14.40;99.90;;;;;;5024781;28;20041;-64
2023/12/31 03:20:02;;;;;;;34.38;31.27;;;14.90;99.90;;;;;;5011054;28;20041;-63
2023/12/31 03:22:28;;;;;;;31.77;29.08;;;14.60;99.90;;;;;;5045352;28;20120;-63
2023/12/31 03:24:53;;;;;;;32.10;29.35;;;14.80;99.90;;;;;;5042927;28;20044;-63
2023/12/31 03:27:19;;;;;;;32.58;29.88;;;14.40;99.90;;;;;;5044979;28;20138;-63
2023/12/31 03:29:45;;;;;;;33.25;30.27;;;16.00;99.90;;;;;;5045481;28;20037;-62
2023/12/31 03:32:11;;;;;;;34.28;31.02;;;15.70;99.90;;;;;;5026140;28;20478;-64
2023/12/31 03:34:37;;;;;;;30.92;28.42;;;14.40;99.90;;;;;;5045298;28;20126;-63
2023/12/31 03:37:02;;;;;;;33.72;30.83;;;15.70;99.90;;;;;;5034419;28;20103;-63
2023/12/31 03:39:28;;;;;;;31.63;28.83;;;15.80;99.90;;;;;;5044370;28;20041;-64
2023/12/31 03:41:53;;;;;;;33.22;30.63;;;15.50;99.90;;;;;;5043581;28;20501;-63
2023/12/31 03:44:19;;;;;;;32.95;30.13;;;15.90;99.90;;;;;;5038422;28;20418;-63
2023/12/31 03:46:45;;;;;;;33.45;30.55;;;15.80;99.90;;;;;;5046379;28;20056;-63
2023/12/31 03:49:11;;;;;;;33.78;30.75;;;15.40;99.90;;;;;;5030331;28;20140;-65
2023/12/31 03:51:37;;;;;;;32.00;29.23;;;14.70;99.90;;;;;;5033298;28;20049;-64
2023/12/31 03:54:05;;;;;;;33.35;30.45;;;15.90;99.90;;;;;;5044249;28;20391;-63
2023/12/31 03:56:31;;;;;;;32.45;29.65;;;15.70;99.90;;;;;;5044666;28;20041;-64
2023/12/31 03:58:56;;;;;;;29.35;26.85;;;15.90;99.90;;;;;;5041969;28;20048;-64
2023/12/31 04:01:22;;;;;;;32.10;29.15;;;15.80;99.90;;;;;;5044463;28;20057;-63
2023/12/31 04:03:47;;;;;;;34.10;31.10;;;14.90;99.90;;;;;;5044021;28;20056;-62
2023/12/31 04:06:13;;;;;;;33.10;30.23;;;15.30;99.90;;;;;;5044481;28;20037;-63
2023/12/31 04:08:40;;;;;;;31.08;28.27;;;14.50;99.90;;;;;;5045873;28;20446;-63
2023/12/31 04:11:06;;;;;;;34.90;31.70;;;15.70;99.90;;;;;;5034410;28;20154;-63
2023/12/31 04:13:32;;;;;;;34.40;31.45;;;15.60;99.90;;;;;;5045913;28;20040;-63
2023/12/31 04:15:57;;;;;;;30.92;28.23;;;14.60;99.90;;;;;;5029493;28;20045;-62
2023/12/31 04:18:23;;;;;;;35.15;32.33;;;14.80;99.90;;;;;;5011972;28;20075;-63
2023/12/31 04:20:49;;;;;;;34.97;32.13;;;14.60;99.90;;;;;;5030370;28;20037;-64
2023/12/31 04:23:14;;;;;;;32.83;30.00;;;15.60;99.90;;;;;;5023036;28;20120;-63
2023/12/31 04:25:40;;;;;;;36.80;33.70;;;15.60;99.90;;;;;;5046874;28;20045;-63
2023/12/31 04:28:06;;;;;;;33.47;30.73;;;14.50;99.90;;;;;;5047564;28;20048;-64
2023/12/31 04:30:31;;;;;;;36.30;33.30;;;14.10;99.90;;;;;;5044348;28;20037;-63
2023/12/31 04:32:57;;;;;;;36.65;33.50;;;14.70;99.90;;;;;;5031717;28;20037;-64
2023/12/31 04:35:22;;;;;;;35.72;32.72;;;14.70;99.90;;;;;;5033935;28;20485;-63
2023/12/31 04:37:48;;;;;;;35.45;32.55;;;14.80;99.90;;;;;;5031121;28;20486;-63
2023/12/31 04:40:14;;;;;;;36.75;33.88;;;14.50;99.90;;;;;;5029657;28;20489;-62
2023/12/31 04:42:39;;;;;;;37.33;34.45;;;14.20;99.90;;;;;;5047325;28;20045;-63
2023/12/31 04:45:08;;;;;;;37.22;34.33;;;13.90;99.90;;;;;;5042003;28;20313;-63
2023/12/31 04:47:37;;;;;;;39.03;35.92;;;15.40;99.90;;;;;;5029424;28;20041;-64
2023/12/31 04:50:03;;;;;;;35.13;32.55;;;14.30;99.90;;;;;;5034308;28;20052;-64
2023/12/31 04:52:29;;;;;;;36.47;33.58;;;14.60;99.90;;;;;;5047392;28;20034;-64
2023/12/31 04:54:54;;;;;;;33.80;31.10;;;15.50;99.90;;;;;;5047861;28;20075;-63
2023/12/31 04:57:20;;;;;;;30.83;28.25;;;14.10;99.90;;;;;;5048161;28;20055;-64
2023/12/31 04:59:45;;;;;;;35.22;32.53;;;15.30;99.90;;;;;;5048738;28;20132;-63
2023/12/31 05:02:11;;;;;;;33.17;30.58;;;14.80;99.90;;;;;;5043088;28;20068;-64
2023/12/31 05:04:37;;;;;;;33.60;31.00;;;14.40;99.90;;;;;;5025038;28;20132;-63
2023/12/31 05:07:02;;;;;;;35.58;32.80;;;15.60;99.90;;;;;;5027497;28;20049;-64
2023/12/31 05:09:28;;;;;;;35.15;32.33;;;15.60;99.90;;;;;;5033475;28;20044;-64
2023/12/31 05:11:54;;;;;;;35.35;32.42;;;14.30;99.90;;;;;;5032481;28;20088;-63
2023/12/31 05:14:19;;;;;;;30.20;27.83;;;14.40;99.90;;;;;;5031727;28;20487;-64
2023/12/31 05:16:45;;;;;;;31.67;29.17;;;15.30;99.90;;;;;;5028274;28;20045;-64
2023/12/31 05:19:11;;;;;;;32.10;29.45;;;15.50;99.90;;;;;;5028328;28;20400;-62
2023/12/31 05:21:39;;;;;;;31.42;28.60;;;15.70;99.90;;;;;;5028789;28;20045;-63
2023/12/31 05:24:05;;;;;;;33.22;30.58;;;14.20;99.90;;;;;;5036252;28;20444;-64
2023/12/31 05:26:31;;;;;;;33.75;30.98;;;14.20;99.90;;;;;;5045865;28;20136;-64
2023/12/31 05:28:57;;;;;;;30.80;28.30;;;15.10;99.90;;;;;;5030562;28;20049;-64
2023/12/31 05:31:22;;;;;;;32.05;29.45;;;15.60;99.90;;;;;;5047185;28;20044;-64
2023/12/31 05:33:48;;;;;;;31.10;28.70;;;14.60;99.90;;;;;;5045291;28;20074;-64
2023/12/31 05:36:13;;;;;;;34.25;31.38;;;14.20;99.90;;;;;;5044619;28;20549;-64
2023/12/31 05:38:39;;;;;;;32.75;30.15;;;14.60;99.90;;;;;;5039690;28;20070;-62
2023/12/31 05:41:04;;;;;;;32.55;29.85;;;15.60;99.90;;;;;;5037829;28;20491;-64
2023/12/31 05:43:30;;;;;;;29.60;27.08;;;14.90;99.90;;;;;;5027336;28;20068;-64
2023/12/31 05:45:56;;;;;;;29.90;27.40;;;15.80;99.90;;;;;;5026533;28;20125;-62
2023/12/31 05:48:21;;;;;;;29.55;27.25;;;15.50;99.90;;;;;;5041712;28;20059;-63
2023/12/31 05:50:47;;;;;;;27.70;25.50;;;14.60;99.90;;;;;;5044765;28;20088;-64
2023/12/31 05:53:13;;;;;;;25.98;24.02;;;16.10;99.90;;;;;;5028470;28;20566;-63
2023/12/31 05:55:39;;;;;;;27.70;25.40;;;15.30;99.90;;;;;;5044511;28;20083;-63
2023/12/31 05:58:04;;;;;;;30.02;27.52;;;15.70;99.90;;;;;;5045343;28;20561;-63
2023/12/31 06:00:30;;;;;;;28.30;25.95;;;14.70;99.90;;;;;;5047499;28;20056;-63
2023/12/31 06:02:56;;;;;;;28.75;26.38;;;14.40;99.90;;;;;;5033375;28;20601;-61
2023/12/31 06:05:21;;;;;;;29.48;27.15;;;15.30;99.90;;;;;;5047289;28;20056;-63
2023/12/31 06:07:47;;;;;;;31.17;28.55;;;15.10;99.90;;;;;;5045785;28;20045;-65
2023/12/31 06:10:13;;;;;;;27.58;25.35;;;15.40;99.90;;;;;;5032745;28;20053;-64
2023/12/31 06:12:38;;;;;;;29.85;27.42;;;14.60;99.90;;;;;;5041636;28;20111;-64
2023/12/31 06:15:06;;;;;;;30.48;27.85;;;15.00;99.90;;;;;;5043060;28;20056;-64
2023/12/31 06:17:36;;;;;;;27.00;24.90;;;14.40;99.90;;;;;;5045204;28;20037;-64
2023/12/31 06:20:03;;;;;;;29.10;26.63;;;14.40;99.90;;;;;;5047676;28;20045;-63
2023/12/31 06:22:28;;;;;;;26.85;24.65;;;15.40;99.90;;;;;;5033527;28;20041;-63
2023/12/31 06:24:54;;;;;;;25.88;23.83;;;15.20;99.90;;;;;;5043789;28;20454;-64
2023/12/31 06:27:20;;;;;;;25.77;23.77;;;14.30;99.90;;;;;;5037951;28;20045;-62
2023/12/31 06:29:45;;;;;;;26.73;24.52;;;14.40;99.90;;;;;;5047007;28;20699;-63
2023/12/31 06:32:11;;;;;;;26.77;24.58;;;14.40;99.90;;;;;;5040319;28;20040;-63
2023/12/31 06:34:36;;;;;;;26.08;23.98;;;15.00;99.90;;;;;;5034030;28;20533;-63
2023/12/31 06:37:02;;;;;;;27.27;24.98;;;14.90;99.90;;;;;;5046812;28;20040;-63
2023/12/31 06:39:29;;;;;;;23.35;21.50;;;15.50;99.90;;;;;;5036598;28;20057;-62
2023/12/31 06:41:55;;;;;;;26.35;24.20;;;14.70;99.90;;;;;;5034590;28;20033;-63
2023/12/31 06:44:21;;;;;;;26.40;24.20;;;15.80;99.90;;;;;;5046381;28;20045;-64
2023/12/31 06:46:46;;;;;;;26.45;24.15;;;14.70;99.90;;;;;;5042629;28;20496;-64
2023/12/31 06:49:12;;;;;;;26.17;24.05;;;14.70;99.90;;;;;;5032002;28;20079;-63
2023/12/31 06:51:39;;;;;;;26.35;24.10;;;15.00;99.90;;;;;;5031284;28;20086;-63
2023/12/31 06:54:04;;;;;;;27.75;25.23;;;14.60;99.90;;;;;;5043710;28;20048;-64
2023/12/31 06:56:30;;;;;;;28.17;25.92;;;15.70;99.90;;;;;;5044079;28;20114;-63
2023/12/31 06:58:56;;;;;;;27.50;25.30;;;15.10;99.90;;;;;;5031507;28;20041;-62
2023/12/31 07:01:21;;;;;;;29.88;27.48;;;15.40;99.90;;;;;;5039877;28;20092;-64
2023/12/31 07:03:47;;;;;;;30.40;27.90;;;15.50;99.90;;;;;;5034855;28;20528;-64
2023/12/31 07:06:14;;;;;;;27.80;25.50;;;15.70;99.90;;;;;;5041893;28;20055;-63
2023/12/31 07:08:39;;;;;;;28.45;26.15;;;15.70;99.90;;;;;;5031209;28;21515;-62
2023/12/31 07:11:05;;;;;;;31.10;28.40;;;14.60;99.90;;;;;;5039292;28;20049;-64
2023/12/31 07:13:31;;;;;;;26.73;24.63;;;15.50;99.90;;;;;;5035339;28;20065;-62
2023/12/31 07:16:00;;;;;;;30.02;27.42;;;15.00;99.90;;;;;;5025075;28;20052;-64
2023/12/31 07:18:28;;;;;;;26.02;23.95;;;14.60;99.90;;;;;;5039551;28;20410;-63
2023/12/31 07:20:57;;;;;;;28.17;25.77;;;15.80;99.90;;;;;;5041265;28;20049;-63
2023/12/31 07:23:22;;;;;;;30.77;28.08;;;15.30;99.90;;;;;;5028935;28;20052;-63
2023/12/31 07:25:48;;;;;;;30.60;28.02;;;15.60;99.90;;;;;;5025091;28;20475;-63
2023/12/31 07:28:13;;;;;;;27.48;25.08;;;14.60;99.90;;;;;;5039832;28;20546;-62
2023/12/31 07:30:44;;;;;;;28.92;26.52;;;14.70;99.90;;;;;;5043120;28;20687;-64
2023/12/31 07:33:09;;;;;;;29.48;26.80;;;14.70;99.90;;;;;;5042311;28;20049;-63
2023/12/31 07:35:36;;;;;;;29.17;26.58;;;15.70;99.90;;;;;;5045697;28;20075;-63
2023/12/31 07:38:03;;;;;;;30.85;28.05;;;15.50;99.90;;;;;;5038132;28;20049;-63
2023/12/31 07:40:29;;;;;;;32.53;29.73;;;15.60;99.90;;;;;;5044387;28;20481;-64
2023/12/31 07:42:55;;;;;;;31.77;29.00;;;16.00;99.90;;;;;;5032059;28;20045;-63
2023/12/31 07:45:21;;;;;;;34.65;31.63;;;14.80;99.90;;;;;;5037308;28;20094;-62
2023/12/31 07:47:47;;;;;;;33.50;30.60;;;15.60;99.90;;;;;;5035213;28;20043;-63
2023/12/31 07:50:13;;;;;;;28.83;26.38;;;14.70;99.90;;;;;;5035579;28;20463;-62
2023/12/31 07:52:38;;;;;;;31.77;29.02;;;15.60;99.90;;;;;;5039021;28;20473;-62
2023/12/31 07:55:08;;;;;;;28.88;26.58;;;14.80;99.90;;;;;;5040311;28;20041;-64
2023/12/31 07:57:34;;;;;;;31.23;28.60;;;15.40;99.90;;;;;;5024507;28;20360;-64
2023/12/31 08:00:00;;;;;;;32.08;29.38;;;14.30;99.90;;;;;;5045516;28;20462;-63
2023/12/31 08:02:25;;;;;;;30.83;28.23;;;14.30;99.90;;;;;;5034739;28;20136;-63
2023/12/31 08:04:51;;;;;;;31.55;28.75;;;14.30;99.90;;;;;;5047033;28;20045;-63
2023/12/31 08:07:16;;;;;;;34.35;31.55;;;16.00;99.90;;;;;;5030057;28;20044;-62
2023/12/31 08:09:42;;;;;;;33.65;30.80;;;15.40;99.90;;;;;;5046148;28;20051;-64
2023/12/31 08:12:07;;;;;;;33.42;30.63;;;14.60;99.90;;;;;;5045921;28;20098;-62
2023/12/31 08:14:33;;;;;;;34.58;31.67;;;15.40;99.90;;;;;;5046753;28;20052;-63
2023/12/31 08:16:59;;;;;;;33.50;30.38;;;15.10;99.90;;;;;;5046403;28;20048;-63
2023/12/31 08:19:25;;;;;;;32.50;29.70;;;15.40;99.90;;;;;;5047446;28;20534;-62
2023/12/31 08:21:50;;;;;;;32.30;29.52;;;14.50;99.90;;;;;;5041695;28;20110;-63
2023/12/31 08:24:20;;;;;;;32.60;29.80;;;14.80;99.90;;;;;;5035664;28;20048;-61
2023/12/31 08:26:46;;;;;;;31.73;28.98;;;15.70;99.90;;;;;;5041987;28;20045;-64
2023/12/31 08:29:11;;;;;;;32.85;29.58;;;15.30;99.90;;;;;;5040410;28;20041;-64
2023/12/31 08:31:37;;;;;;;34.20;31.08;;;14.60;99.90;;;;;;5038296;28;20411;-64
2023/12/31 08:34:02;;;;;;;32.47;29.60;;;15.70;99.90;;;;;;5044202;28;20507;-65
2023/12/31 08:36:28;;;;;;;32.47;29.48;;;15.10;99.90;;;;;;5046082;28;20045;-63
2023/12/31 08:38:54;;;;;;;33.33;30.30;;;14.50;99.90;;;;;;5047456;28;20053;-63
2023/12/31 08:41:20;;;;;;;30.40;27.77;;;15.60;99.90;;;;;;5036749;28;20048;-64
2023/12/31 08:43:46;;;;;;;31.58;28.67;;;14.90;99.90;;;;;;5036663;28;20124;-63
2023/12/31 08:46:12;;;;;;;32.78;29.58;;;15.30;99.90;;;;;;5042898;28;20558;-64
2023/12/31 08:48:37;;;;;;;29.40;26.83;;;15.10;99.90;;;;;;5041999;28;20072;-64
2023/12/31 08:51:03;;;;;;;32.33;29.63;;;15.80;99.90;;;;;;5046476;28;20085;-63
2023/12/31 08:53:29;;;;;;;34.63;31.73;;;14.90;99.90;;;;;;5044030;28;20056;-62
2023/12/31 08:55:55;;;;;;;33.20;30.40;;;14.80;99.90;;;;;;5035677;28;20049;-63
2023/12/31 08:58:20;;;;;;;30.45;27.85;;;15.70;99.90;;;;;;5036061;28;20442;-62
2023/12/31 09:00:46;;;;;;;29.85;26.95;;;15.10;99.90;;;;;;5047148;28;20426;-62
2023/12/31 09:03:12;;;;;;;29.20;26.58;;;15.80;99.90;;;;;;5045256;28;20148;-65
2023/12/31 09:05:38;;;;;;;30.30;27.70;;;15.20;99.90;;;;;;5045433;28;20041;-64
2023/12/31 09:08:04;;;;;;;27.67;25.27;;;15.50;99.90;;;;;;5047782;28;20444;-63
2023/12/31 09:10:30;;;;;;;31.95;29.35;;;14.60;99.90;;;;;;5043352;28;20119;-64
2023/12/31 09:12:55;;;;;;;30.83;28.27;;;15.30;99.90;;;;;;5039589;28;20206;-65
2023/12/31 09:15:21;;;;;;;32.25;29.63;;;14.40;99.90;;;;;;5033814;28;20136;-64
2023/12/31 09:17:46;;;;;;;33.92;31.23;;;14.50;99.90;;;;;;5044722;28;20072;-65
2023/12/31 09:20:13;;;;;;;32.65;29.85;;;16.00;99.90;;;;;;5045211;28;20037;-64
2023/12/31 09:22:39;;;;;;;30.42;28.10;;;14.30;99.90;;;;;;5042241;28;20049;-64
2023/12/31 09:25:08;;;;;;;33.00;30.13;;;15.70;99.90;;;;;;5037479;28;20052;-65
2023/12/31 09:27:34;;;;;;;32.22;29.63;;;14.40;99.90;;;;;;5039663;28;20075;-65
2023/12/31 09:30:00;;;;;;;31.92;29.42;;;15.50;99.90;;;;;;5034047;28;20045;-65
2023/12/31 09:32:25;;;;;;;32.85;29.92;;;14.40;99.90;;;;;;5032689;28;20037;-65
2023/12/31 09:34:51;;;;;;;32.05;29.35;;;14.40;99.90;;;;;;5031719;28;20512;-68
2023/12/31 09:37:19;;;;;;;34.53;31.73;;;14.70;99.90;;;;;;5040711;28;20068;-65
2023/12/31 09:39:48;;;;;;;34.28;31.48;;;14.20;99.90;;;;;;5031658;28;20052;-64
2023/12/31 09:42:18;;;;;;;34.58;31.75;;;14.70;99.90;;;;;;5044932;28;20407;-64
2023/12/31 09:44:44;;;;;;;30.25;27.77;;;14.00;99.90;;;;;;5043203;28;20453;-64
2023/12/31 09:47:11;;;;;;;35.40;32.30;;;15.40;99.90;;;;;;5037014;28;20037;-64
2023/12/31 09:49:39;;;;;;;36.60;33.40;;;15.70;99.90;;;;;;5032509;28;20049;-65
2023/12/31 09:52:07;;;;;;;34.78;31.85;;;15.80;99.90;;;;;;5032991;28;20053;-65
2023/12/31 09:54:34;;;;;;;35.40;32.30;;;15.60;99.90;;;;;;5036039;28;20502;-66
2023/12/31 09:57:01;;;;;;;33.20;30.33;;;14.50;99.90;;;;;;5038542;28;20063;-66
2023/12/31 09:59:28;;;;;;;33.53;30.73;;;15.30;99.90;;;;;;5041385;28;20040;-66
2023/12/31 10:01:56;;;;;;;33.25;30.60;;;15.10;99.90;;;;;;5042955;28;20053;-67
2023/12/31 10:04:22;;;;;;;35.70;32.70;;;15.30;99.90;;;;;;5032097;28;20133;-65
2023/12/31 10:06:50;;;;;;;33.83;31.02;;;14.70;99.90;;;;;;5031775;28;20115;-66
2023/12/31 10:09:18;;;;;;;35.33;32.33;;;14.70;99.90;;;;;;5042350;28;20123;-67
2023/12/31 10:11:45;;;;;;;35.25;32.25;;;16.10;99.90;;;;;;5044179;28;20048;-69
2023/12/31 10:14:12;;;;;;;37.53;34.53;;;14.60;99.90;;;;;;5038055;28;20675;-68
2023/12/31 10:16:43;;;;;;;36.38;33.28;;;15.90;99.90;;;;;;5038721;28;20057;-67
2023/12/31 10:19:11;;;;;;;36.40;33.45;;;14.70;99.90;;;;;;5014414;28;20514;-67
2023/12/31 10:21:38;;;;;;;35.85;32.97;;;15.80;99.90;;;;;;5040614;28;20103;-66
2023/12/31 10:24:04;;;;;;;36.38;33.22;;;15.40;99.90;;;;;;5032870;28;20091;-66
2023/12/31 10:26:30;;;;;;;38.28;34.72;;;15.70;99.90;;;;;;5039333;28;20797;-68
2023/12/31 10:28:55;;;;;;;38.78;35.38;;;14.10;99.90;;;;;;5033085;28;20037;-69
2023/12/31 10:31:25;;;;;;;32.85;30.13;;;14.90;99.90;;;;;;5030043;28;20498;-68
2023/12/31 10:33:51;;;;;;;37.60;34.38;;;15.70;99.90;;;;;;5036494;28;20041;-68
2023/12/31 10:36:21;;;;;;;38.78;35.50;;;15.70;99.90;;;;;;5026699;28;20498;-68
2023/12/31 10:38:48;;;;;;;39.80;36.50;;;13.60;99.90;;;;;;5038611;28;20037;-66
2023/12/31 10:41:25;;;;;;;37.10;33.75;;;15.30;99.90;;;;;;5009716;28;20053;-68
2023/12/31 10:43:52;;;;;;;27.40;24.95;;;13.40;99.90;;;;;;5041874;28;20041;-67
2023/12/31 10:46:19;;;;;;;31.63;28.63;;;15.20;99.90;;;;;;5036113;28;20211;-68
2023/12/31 10:48:56;;;;;;;32.80;29.65;;;13.30;99.90;;;;;;5036052;28;20041;-68
2023/12/31 10:51:26;;;;;;;31.73;28.92;;;13.20;99.90;;;;;;5037076;28;20037;-68
2023/12/31 10:53:57;;;;;;;31.52;28.67;;;13.20;99.90;;;;;;5040070;28;20559;-66
2023/12/31 10:56:24;;;;;;;32.05;29.15;;;13.50;99.90;;;;;;5034995;28;20556;-67
2023/12/31 10:58:54;;;;;;;33.15;29.95;;;15.00;99.90;;;;;;5025857;28;20348;-67
2023/12/31 11:01:22;;;;;;;32.80;29.65;;;15.00;99.90;;;;;;5041973;28;20057;-68
2023/12/31 11:03:48;;;;;;;37.65;34.25;;;14.80;99.90;;;;;;5042852;28;20049;-67
2023/12/31 11:06:16;;;;;;;33.97;30.83;;;14.00;99.90;;;;;;5043846;28;20076;-67
2023/12/31 11:08:45;;;;;;;35.00;31.90;;;15.00;99.90;;;;;;5038248;28;20036;-65
2023/12/31 11:11:11;;;;;;;32.30;29.45;;;12.90;99.90;;;;;;5033977;28;20475;-66
2023/12/31 11:13:40;;;;;;;34.65;31.52;;;15.00;99.90;;;;;;5041604;28;20502;-67
2023/12/31 11:16:14;;;;;;;37.00;33.80;;;13.40;99.90;;;;;;5037891;28;20095;-66
2023/12/31 11:18:48;;;;;;;36.70;32.97;;;12.70;99.90;;;;;;5026334;28;20037;-66
2023/12/31 11:21:37;;;;;;;38.25;34.75;;;15.30;99.90;;;;;;5038337;28;20144;-65
2023/12/31 11:24:18;;;;;;;34.35;30.95;;;13.00;99.90;;;;;;5041675;28;20051;-67
2023/12/31 11:27:02;;;;;;;35.13;31.90;;;14.90;99.90;;;;;;5044561;28;20033;-65
2023/12/31 11:29:27;;;;;;;39.10;35.20;;;15.40;99.90;;;;;;5030977;28;20032;-65
2023/12/31 11:31:53;;;;;;;33.85;30.70;;;13.80;99.90;;;;;;5041563;28;20589;-64
2023/12/31 11:34:18;;;;;;;38.83;35.38;;;12.90;99.90;;;;;;5034930;28;20387;-66
2023/12/31 11:36:44;;;;;;;40.38;36.47;;;13.30;99.90;;;;;;5044624;28;20629;-65
2023/12/31 11:39:16;;;;;;;34.97;31.50;;;14.40;99.90;;;;;;5041334;28;20422;-65
2023/12/31 11:41:50;;;;;;;36.80;33.08;;;14.40;99.90;;;;;;5042816;28;20049;-64
2023/12/31 11:44:38;;;;;;;39.40;35.80;;;14.30;99.90;;;;;;5033501;28;20045;-65
2023/12/31 11:47:14;;;;;;;37.47;33.97;;;14.00;99.90;;;;;;5042128;28;20074;-65
2023/12/31 11:50:02;;;;;;;38.58;34.88;;;15.90;99.90;;;;;;5034491;28;20041;-65
2023/12/31 11:52:39;;;;;;;36.85;33.20;;;16.30;99.90;;;;;;5030716;28;20050;-66
2023/12/31 11:55:10;;;;;;;37.67;34.22;;;13.50;99.90;;;;;;5031425;28;20041;-66
2023/12/31 11:57:36;;;;;;;37.85;34.45;;;14.00;99.90;;;;;;5024136;28;20148;-65
2023/12/31 12:00:06;;;;;;;38.08;34.47;;;13.60;99.90;;;;;;5044121;28;20116;-65
2023/12/31 12:02:32;;;;;;;37.65;34.13;;;15.50;99.90;;;;;;5017857;28;20122;-64
2023/12/31 12:05:00;;;;;;;39.15;35.55;;;14.30;99.90;;;;;;5038091;28;20057;-67
2023/12/31 12:07:26;;;;;;;38.35;35.00;;;16.20;99.90;;;;;;5044194;28;20392;-65
2023/12/31 12:09:52;;;;;;;37.58;34.17;;;16.30;99.90;;;;;;5044528;28;20045;-65
2023/12/31 12:12:18;;;;;;;35.75;32.55;;;15.90;99.90;;;;;;5042445;28;20041;-65
2023/12/31 12:14:44;;;;;;;36.60;33.10;;;13.40;99.90;;;;;;5035097;28;20156;-64
2023/12/31 12:17:09;;;;;;;36.75;33.30;;;13.40;99.90;;;;;;5024425;28;20148;-64
2023/12/31 12:19:35;;;;;;;36.15;32.83;;;15.90;99.90;;;;;;5025688;28;20041;-64
2023/12/31 12:22:02;;;;;;;36.22;32.80;;;13.50;99.90;;;;;;5026759;28;20052;-64
2023/12/31 12:24:28;;;;;;;36.90;33.70;;;13.50;99.90;;;;;;5028608;28;20184;-67